sensor_id;sensor_type;location;lat;lon;timestamp;P1;durP1;ratioP1;P2;durP2;ratioP2
12888;SDS011;56848;49.896;11.424;2022-12-07T05:01:08;16.50;;;8.25;;
12888;SDS011;56848;49.896;11.424;2022-12-07T05:03:35;19.90;;;11.10;;
12888;SDS011;56848;49.896;11.424;2022-12-07T05:06:01;21.10;;;11.43;;
12888;SDS011;56848;49.896;11.424;2022-12-07T05:08:27;19.20;;;11.32;;
12888;SDS011;56848;49.896;11.424;2022-12-07T05:10:53;19.70;;;11.70;;
12888;SDS011;56848;49.896;11.424;2022-12-07T05:13:19;18.20;;;11.30;;
12888;SDS011;56848;49.896;11.424;2022-12-07T05:15:44;16.10;;;8.80;;
12888;SDS011;56848;49.896;11.424;2022-12-07T05:18:12;22.90;;;11.20;;
12888;SDS011;56848;49.896;11.424;2022-12-07T05:20:38;18.07;;;10.00;;
12888;SDS011;56848;49.896;11.424;2022-12-07T05:23:04;21.13;;;9.25;;
12888;SDS011;56848;49.896;11.424;2022-12-07T05:25:30;19.23;;;11.17;;
12888;SDS011;56848;49.896;11.424;2022-12-07T05:27:56;20.80;;;11.20;;
12888;SDS011;56848;49.896;11.424;2022-12-07T05:30:22;24.92;;;11.75;;
12888;SDS011;56848;49.896;11.424;2022-12-07T05:32:48;23.27;;;11.48;;
12888;SDS011;56848;49.896;11.424;2022-12-07T05:35:14;25.77;;;13.33;;
12888;SDS011;56848;49.896;11.424;2022-12-07T05:37:39;24.00;;;12.27;;
12888;SDS011;56848;49.896;11.424;2022-12-07T05:40:05;22.00;;;10.70;;
12888;SDS011;56848;49.896;11.424;2022-12-07T05:42:31;21.35;;;11.20;;
12888;SDS011;56848;49.896;11.424;2022-12-07T05:44:57;25.13;;;12.77;;
12888;SDS011;56848;49.896;11.424;2022-12-07T05:47:22;22.33;;;11.03;;
12888;SDS011;56848;49.896;11.424;2022-12-07T05:49:48;21.40;;;11.70;;
12888;SDS011;56848;49.896;11.424;2022-12-07T05:52:13;21.00;;;10.67;;
12888;SDS011;56848;49.896;11.424;2022-12-07T05:54:39;23.67;;;11.23;;
12888;SDS011;56848;49.896;11.424;2022-12-07T05:57:05;21.40;;;11.00;;
12888;SDS011;56848;49.896;11.424;2022-12-07T05:59:30;14.07;;;6.40;;
12888;SDS011;56848;49.896;11.424;2022-12-07T06:02:00;22.47;;;11.30;;
12888;SDS011;56848;49.896;11.424;2022-12-07T06:04:29;24.48;;;10.60;;
12888;SDS011;56848;49.896;11.424;2022-12-07T06:06:56;20.48;;;10.02;;
12888;SDS011;56848;49.896;11.424;2022-12-07T06:09:23;28.13;;;10.93;;
12888;SDS011;56848;49.896;11.424;2022-12-07T06:11:49;15.80;;;7.53;;
12888;SDS011;56848;49.896;11.424;2022-12-07T06:14:33;18.85;;;9.10;;
12888;SDS011;56848;49.896;11.424;2022-12-07T06:16:59;17.37;;;9.60;;
12888;SDS011;56848;49.896;11.424;2022-12-07T06:19:25;19.73;;;9.90;;
12888;SDS011;56848;49.896;11.424;2022-12-07T06:21:51;19.53;;;10.90;;
12888;SDS011;56848;49.896;11.424;2022-12-07T06:24:17;21.80;;;9.55;;
12888;SDS011;56848;49.896;11.424;2022-12-07T06:26:43;14.68;;;6.45;;
12888;SDS011;56848;49.896;11.424;2022-12-07T06:29:09;16.80;;;9.00;;
12888;SDS011;56848;49.896;11.424;2022-12-07T06:31:36;16.92;;;7.25;;
12888;SDS011;56848;49.896;11.424;2022-12-07T06:34:03;27.05;;;12.13;;
12888;SDS011;56848;49.896;11.424;2022-12-07T06:36:30;20.00;;;10.15;;
12888;SDS011;56848;49.896;11.424;2022-12-07T06:38:56;19.20;;;10.50;;
12888;SDS011;56848;49.896;11.424;2022-12-07T06:41:22;19.97;;;10.47;;
12888;SDS011;56848;49.896;11.424;2022-12-07T06:43:48;17.80;;;8.93;;
12888;SDS011;56848;49.896;11.424;2022-12-07T06:46:14;26.40;;;12.07;;
12888;SDS011;56848;49.896;11.424;2022-12-07T06:48:41;26.48;;;11.43;;
12888;SDS011;56848;49.896;11.424;2022-12-07T06:51:07;26.67;;;12.95;;
12888;SDS011;56848;49.896;11.424;2022-12-07T06:53:33;27.60;;;12.60;;
12888;SDS011;56848;49.896;11.424;2022-12-07T06:55:58;30.77;;;13.60;;
12888;SDS011;56848;49.896;11.424;2022-12-07T06:58:24;28.80;;;13.60;;
12888;SDS011;56848;49.896;11.424;2022-12-07T07:00:50;21.47;;;11.17;;
12888;SDS011;56848;49.896;11.424;2022-12-07T07:03:15;29.93;;;13.43;;
12888;SDS011;56848;49.896;11.424;2022-12-07T07:05:42;27.58;;;12.07;;
12888;SDS011;56848;49.896;11.424;2022-12-07T07:08:08;26.33;;;11.95;;
12888;SDS011;56848;49.896;11.424;2022-12-07T07:10:34;24.27;;;12.00;;
12888;SDS011;56848;49.896;11.424;2022-12-07T07:13:01;23.75;;;11.52;;
12888;SDS011;56848;49.896;11.424;2022-12-07T07:15:26;23.87;;;9.53;;
12888;SDS011;56848;49.896;11.424;2022-12-07T07:17:52;29.10;;;14.63;;
12888;SDS011;56848;49.896;11.424;2022-12-07T07:20:18;27.13;;;13.77;;
12888;SDS011;56848;49.896;11.424;2022-12-07T07:22:43;28.10;;;12.97;;
12888;SDS011;56848;49.896;11.424;2022-12-07T07:25:09;16.03;;;8.33;;
12888;SDS011;56848;49.896;11.424;2022-12-07T07:27:35;25.50;;;13.13;;
12888;SDS011;56848;49.896;11.424;2022-12-07T07:30:00;24.93;;;12.53;;
12888;SDS011;56848;49.896;11.424;2022-12-07T07:32:26;28.23;;;11.60;;
12888;SDS011;56848;49.896;11.424;2022-12-07T07:34:52;26.20;;;12.63;;
12888;SDS011;56848;49.896;11.424;2022-12-07T07:37:17;23.70;;;11.67;;
12888;SDS011;56848;49.896;11.424;2022-12-07T07:39:43;26.17;;;13.23;;
12888;SDS011;56848;49.896;11.424;2022-12-07T07:42:08;25.43;;;11.70;;
12888;SDS011;56848;49.896;11.424;2022-12-07T07:44:34;28.20;;;13.60;;
12888;SDS011;56848;49.896;11.424;2022-12-07T07:47:00;29.70;;;14.13;;
12888;SDS011;56848;49.896;11.424;2022-12-07T07:49:26;26.60;;;14.40;;
12888;SDS011;56848;49.896;11.424;2022-12-07T07:51:51;30.27;;;13.90;;
12888;SDS011;56848;49.896;11.424;2022-12-07T07:54:17;31.10;;;13.20;;
12888;SDS011;56848;49.896;11.424;2022-12-07T07:56:43;29.23;;;13.23;;
12888;SDS011;56848;49.896;11.424;2022-12-07T07:59:08;22.27;;;9.47;;
12888;SDS011;56848;49.896;11.424;2022-12-07T08:01:34;25.50;;;12.37;;
12888;SDS011;56848;49.896;11.424;2022-12-07T08:04:00;26.40;;;11.50;;
12888;SDS011;56848;49.896;11.424;2022-12-07T08:06:26;16.87;;;8.93;;
12888;SDS011;56848;49.896;11.424;2022-12-07T08:08:51;12.87;;;6.87;;
12888;SDS011;56848;49.896;11.424;2022-12-07T08:11:17;24.93;;;11.93;;
12888;SDS011;56848;49.896;11.424;2022-12-07T08:13:46;24.17;;;12.55;;
12888;SDS011;56848;49.896;11.424;2022-12-07T08:16:12;27.02;;;11.32;;
12888;SDS011;56848;49.896;11.424;2022-12-07T08:18:39;25.20;;;11.85;;
12888;SDS011;56848;49.896;11.424;2022-12-07T08:21:06;27.90;;;11.98;;
12888;SDS011;56848;49.896;11.424;2022-12-07T08:23:34;32.30;;;13.93;;
12888;SDS011;56848;49.896;11.424;2022-12-07T08:26:00;22.23;;;12.20;;
12888;SDS011;56848;49.896;11.424;2022-12-07T08:28:27;18.00;;;8.10;;
12888;SDS011;56848;49.896;11.424;2022-12-07T08:30:58;27.45;;;10.90;;
12888;SDS011;56848;49.896;11.424;2022-12-07T08:33:27;27.70;;;12.20;;
12888;SDS011;56848;49.896;11.424;2022-12-07T08:35:53;24.57;;;12.37;;
12888;SDS011;56848;49.896;11.424;2022-12-07T08:38:19;27.30;;;14.27;;
12888;SDS011;56848;49.896;11.424;2022-12-07T08:40:45;28.37;;;14.47;;
12888;SDS011;56848;49.896;11.424;2022-12-07T08:43:18;28.70;;;12.13;;
12888;SDS011;56848;49.896;11.424;2022-12-07T08:45:43;28.07;;;12.00;;
12888;SDS011;56848;49.896;11.424;2022-12-07T08:48:10;27.97;;;14.40;;
12888;SDS011;56848;49.896;11.424;2022-12-07T08:50:38;26.52;;;13.30;;
12888;SDS011;56848;49.896;11.424;2022-12-07T08:53:04;32.58;;;13.05;;
12888;SDS011;56848;49.896;11.424;2022-12-07T08:55:31;31.58;;;13.57;;
12888;SDS011;56848;49.896;11.424;2022-12-07T08:57:58;25.80;;;9.35;;
12888;SDS011;56848;49.896;11.424;2022-12-07T09:00:25;32.50;;;12.48;;
12888;SDS011;56848;49.896;11.424;2022-12-07T09:02:51;24.90;;;12.68;;
12888;SDS011;56848;49.896;11.424;2022-12-07T09:05:18;17.83;;;8.98;;
12888;SDS011;56848;49.896;11.424;2022-12-07T09:07:44;29.03;;;14.57;;
12888;SDS011;56848;49.896;11.424;2022-12-07T09:10:12;25.20;;;12.85;;
12888;SDS011;56848;49.896;11.424;2022-12-07T09:12:38;29.60;;;13.00;;
12888;SDS011;56848;49.896;11.424;2022-12-07T09:15:03;26.50;;;12.87;;
12888;SDS011;56848;49.896;11.424;2022-12-07T09:17:32;29.85;;;13.55;;
12888;SDS011;56848;49.896;11.424;2022-12-07T09:19:58;27.83;;;14.82;;
12888;SDS011;56848;49.896;11.424;2022-12-07T09:22:27;25.63;;;13.82;;
12888;SDS011;56848;49.896;11.424;2022-12-07T09:24:54;36.30;;;14.35;;
12888;SDS011;56848;49.896;11.424;2022-12-07T09:27:19;21.90;;;9.40;;
12888;SDS011;56848;49.896;11.424;2022-12-07T09:29:45;28.63;;;13.70;;
12888;SDS011;56848;49.896;11.424;2022-12-07T09:32:10;24.07;;;12.13;;
12888;SDS011;56848;49.896;11.424;2022-12-07T09:34:36;27.63;;;12.40;;
12888;SDS011;56848;49.896;11.424;2022-12-07T09:37:01;30.70;;;14.80;;
12888;SDS011;56848;49.896;11.424;2022-12-07T09:39:28;28.10;;;14.27;;
12888;SDS011;56848;49.896;11.424;2022-12-07T09:41:54;23.77;;;13.93;;
12888;SDS011;56848;49.896;11.424;2022-12-07T09:44:23;29.30;;;13.50;;
12888;SDS011;56848;49.896;11.424;2022-12-07T09:46:51;33.40;;;14.82;;
12888;SDS011;56848;49.896;11.424;2022-12-07T09:49:19;27.88;;;13.27;;
12888;SDS011;56848;49.896;11.424;2022-12-07T09:51:46;31.45;;;14.85;;
12888;SDS011;56848;49.896;11.424;2022-12-07T09:54:14;34.10;;;14.18;;
12888;SDS011;56848;49.896;11.424;2022-12-07T09:56:41;25.85;;;12.35;;
12888;SDS011;56848;49.896;11.424;2022-12-07T09:59:12;13.27;;;6.18;;
12888;SDS011;56848;49.896;11.424;2022-12-07T10:01:42;27.83;;;13.18;;
12888;SDS011;56848;49.896;11.424;2022-12-07T10:06:46;31.25;;;13.10;;
12888;SDS011;56848;49.896;11.424;2022-12-07T10:09:14;29.38;;;14.15;;
12888;SDS011;56848;49.896;11.424;2022-12-07T10:14:29;29.08;;;13.18;;
12888;SDS011;56848;49.896;11.424;2022-12-07T10:16:55;32.40;;;13.43;;
12888;SDS011;56848;49.896;11.424;2022-12-07T10:24:26;28.02;;;14.25;;
12888;SDS011;56848;49.896;11.424;2022-12-07T10:26:52;38.30;;;15.13;;
12888;SDS011;56848;49.896;11.424;2022-12-07T10:29:32;33.70;;;14.90;;
12888;SDS011;56848;49.896;11.424;2022-12-07T10:32:05;28.67;;;13.30;;
12888;SDS011;56848;49.896;11.424;2022-12-07T10:34:39;30.23;;;14.48;;
12888;SDS011;56848;49.896;11.424;2022-12-07T10:39:48;30.25;;;12.15;;
12888;SDS011;56848;49.896;11.424;2022-12-07T10:44:49;31.02;;;13.65;;
12888;SDS011;56848;49.896;11.424;2022-12-07T10:47:34;27.85;;;13.23;;
12888;SDS011;56848;49.896;11.424;2022-12-07T10:53:18;30.95;;;13.98;;
12888;SDS011;56848;49.896;11.424;2022-12-07T11:04:28;29.13;;;12.15;;
12888;SDS011;56848;49.896;11.424;2022-12-07T11:10:02;23.67;;;11.57;;
12888;SDS011;56848;49.896;11.424;2022-12-07T11:12:47;23.55;;;13.35;;
12888;SDS011;56848;49.896;11.424;2022-12-07T11:15:47;31.13;;;13.88;;
12888;SDS011;56848;49.896;11.424;2022-12-07T11:21:14;28.20;;;12.88;;
12888;SDS011;56848;49.896;11.424;2022-12-07T11:29:26;25.33;;;12.35;;
12888;SDS011;56848;49.896;11.424;2022-12-07T11:37:35;22.52;;;10.85;;
12888;SDS011;56848;49.896;11.424;2022-12-07T11:40:12;23.23;;;12.65;;
12888;SDS011;56848;49.896;11.424;2022-12-07T11:42:57;20.00;;;10.65;;
12888;SDS011;56848;49.896;11.424;2022-12-07T11:45:43;25.27;;;11.40;;
12888;SDS011;56848;49.896;11.424;2022-12-07T11:48:14;23.55;;;11.40;;
12888;SDS011;56848;49.896;11.424;2022-12-07T11:50:57;19.73;;;11.60;;
12888;SDS011;56848;49.896;11.424;2022-12-07T11:53:33;18.40;;;11.20;;
12888;SDS011;56848;49.896;11.424;2022-12-07T11:56:07;21.77;;;10.77;;
12888;SDS011;56848;49.896;11.424;2022-12-07T11:58:44;19.80;;;11.55;;
12888;SDS011;56848;49.896;11.424;2022-12-07T12:06:25;23.52;;;11.20;;
12888;SDS011;56848;49.896;11.424;2022-12-07T12:19:35;19.50;;;10.60;;
12888;SDS011;56848;49.896;11.424;2022-12-07T12:22:12;22.00;;;10.87;;
12888;SDS011;56848;49.896;11.424;2022-12-07T12:24:45;20.77;;;11.13;;
12888;SDS011;56848;49.896;11.424;2022-12-07T12:27:26;21.27;;;10.40;;
12888;SDS011;56848;49.896;11.424;2022-12-07T12:29:57;18.73;;;10.13;;
12888;SDS011;56848;49.896;11.424;2022-12-07T12:32:30;16.53;;;9.67;;
12888;SDS011;56848;49.896;11.424;2022-12-07T12:38:20;18.35;;;9.13;;
12888;SDS011;56848;49.896;11.424;2022-12-07T12:40:55;17.67;;;9.97;;
12888;SDS011;56848;49.896;11.424;2022-12-07T12:51:41;14.53;;;9.23;;
12888;SDS011;56848;49.896;11.424;2022-12-07T12:54:13;17.60;;;9.05;;
12888;SDS011;56848;49.896;11.424;2022-12-07T13:18:46;17.07;;;8.80;;
12888;SDS011;56848;49.896;11.424;2022-12-07T13:28:36;22.73;;;8.83;;
12888;SDS011;56848;49.896;11.424;2022-12-07T13:33:57;18.33;;;8.90;;
12888;SDS011;56848;49.896;11.424;2022-12-07T13:36:27;13.73;;;7.77;;
12888;SDS011;56848;49.896;11.424;2022-12-07T13:39:01;12.25;;;7.65;;
12888;SDS011;56848;49.896;11.424;2022-12-07T13:41:41;22.03;;;8.47;;
12888;SDS011;56848;49.896;11.424;2022-12-07T13:44:14;20.10;;;9.70;;
12888;SDS011;56848;49.896;11.424;2022-12-07T13:49:20;21.42;;;9.50;;
12888;SDS011;56848;49.896;11.424;2022-12-07T13:51:54;17.47;;;9.03;;
12888;SDS011;56848;49.896;11.424;2022-12-07T13:54:31;13.40;;;5.73;;
12888;SDS011;56848;49.896;11.424;2022-12-07T13:56:57;16.10;;;9.10;;
12888;SDS011;56848;49.896;11.424;2022-12-07T13:59:24;13.43;;;6.35;;
12888;SDS011;56848;49.896;11.424;2022-12-07T14:01:51;12.55;;;7.43;;
12888;SDS011;56848;49.896;11.424;2022-12-07T14:04:34;14.48;;;8.05;;
12888;SDS011;56848;49.896;11.424;2022-12-07T14:07:18;10.48;;;6.15;;
12888;SDS011;56848;49.896;11.424;2022-12-07T14:09:56;19.27;;;7.82;;
12888;SDS011;56848;49.896;11.424;2022-12-07T14:12:26;15.48;;;7.15;;
12888;SDS011;56848;49.896;11.424;2022-12-07T14:14:53;10.17;;;6.60;;
12888;SDS011;56848;49.896;11.424;2022-12-07T14:17:21;14.40;;;8.48;;
12888;SDS011;56848;49.896;11.424;2022-12-07T14:19:52;13.35;;;5.22;;
12888;SDS011;56848;49.896;11.424;2022-12-07T14:24:47;11.87;;;6.57;;
12888;SDS011;56848;49.896;11.424;2022-12-07T14:27:18;6.17;;;4.27;;
12888;SDS011;56848;49.896;11.424;2022-12-07T14:29:50;14.00;;;7.15;;
12888;SDS011;56848;49.896;11.424;2022-12-07T14:32:20;16.77;;;7.77;;
12888;SDS011;56848;49.896;11.424;2022-12-07T14:34:54;9.27;;;3.80;;
12888;SDS011;56848;49.896;11.424;2022-12-07T14:37:21;12.27;;;6.43;;
12888;SDS011;56848;49.896;11.424;2022-12-07T14:39:47;12.30;;;6.80;;
12888;SDS011;56848;49.896;11.424;2022-12-07T14:42:12;14.27;;;7.47;;
12888;SDS011;56848;49.896;11.424;2022-12-07T14:44:38;14.90;;;8.07;;
12888;SDS011;56848;49.896;11.424;2022-12-07T14:47:03;15.20;;;9.37;;
12888;SDS011;56848;49.896;11.424;2022-12-07T14:49:29;16.77;;;9.07;;
12888;SDS011;56848;49.896;11.424;2022-12-07T14:51:54;14.43;;;7.67;;
12888;SDS011;56848;49.896;11.424;2022-12-07T14:54:20;16.43;;;8.23;;
12888;SDS011;56848;49.896;11.424;2022-12-07T14:56:51;19.20;;;8.65;;
12888;SDS011;56848;49.896;11.424;2022-12-07T14:59:17;14.10;;;8.33;;
12888;SDS011;56848;49.896;11.424;2022-12-07T15:01:43;18.92;;;9.68;;
12888;SDS011;56848;49.896;11.424;2022-12-07T15:04:09;17.47;;;9.23;;
12888;SDS011;56848;49.896;11.424;2022-12-07T15:06:34;13.27;;;7.97;;
12888;SDS011;56848;49.896;11.424;2022-12-07T15:09:00;17.20;;;8.60;;
12888;SDS011;56848;49.896;11.424;2022-12-07T15:11:26;23.43;;;9.10;;
12888;SDS011;56848;49.896;11.424;2022-12-07T15:13:51;17.03;;;5.80;;
12888;SDS011;56848;49.896;11.424;2022-12-07T15:16:32;16.38;;;9.15;;
12888;SDS011;56848;49.896;11.424;2022-12-07T15:18:59;15.73;;;6.20;;
12888;SDS011;56848;49.896;11.424;2022-12-07T15:21:24;21.73;;;9.30;;
12888;SDS011;56848;49.896;11.424;2022-12-07T15:23:50;18.20;;;8.63;;
12888;SDS011;56848;49.896;11.424;2022-12-07T15:26:15;22.17;;;10.80;;
12888;SDS011;56848;49.896;11.424;2022-12-07T15:28:41;21.63;;;10.80;;
12888;SDS011;56848;49.896;11.424;2022-12-07T15:31:11;21.30;;;10.50;;
12888;SDS011;56848;49.896;11.424;2022-12-07T15:33:37;22.95;;;9.60;;
12888;SDS011;56848;49.896;11.424;2022-12-07T15:36:02;21.80;;;10.67;;
12888;SDS011;56848;49.896;11.424;2022-12-07T15:38:28;25.47;;;11.03;;
12888;SDS011;56848;49.896;11.424;2022-12-07T15:40:55;18.80;;;10.77;;
12888;SDS011;56848;49.896;11.424;2022-12-07T15:43:21;18.60;;;6.00;;
12888;SDS011;56848;49.896;11.424;2022-12-07T15:46:05;20.38;;;9.25;;
12888;SDS011;56848;49.896;11.424;2022-12-07T15:48:30;15.53;;;9.33;;
12888;SDS011;56848;49.896;11.424;2022-12-07T15:51:03;21.03;;;8.90;;
12888;SDS011;56848;49.896;11.424;2022-12-07T15:53:30;22.05;;;10.45;;
12888;SDS011;56848;49.896;11.424;2022-12-07T15:55:56;21.80;;;7.97;;
12888;SDS011;56848;49.896;11.424;2022-12-07T15:58:21;19.27;;;9.10;;
12888;SDS011;56848;49.896;11.424;2022-12-07T16:00:47;13.80;;;8.77;;
12888;SDS011;56848;49.896;11.424;2022-12-07T16:03:13;14.83;;;8.47;;
12888;SDS011;56848;49.896;11.424;2022-12-07T16:05:38;17.50;;;9.40;;
12888;SDS011;56848;49.896;11.424;2022-12-07T16:08:04;19.30;;;9.20;;
12888;SDS011;56848;49.896;11.424;2022-12-07T16:10:30;14.60;;;8.47;;
12888;SDS011;56848;49.896;11.424;2022-12-07T16:12:55;25.40;;;9.33;;
12888;SDS011;56848;49.896;11.424;2022-12-07T16:15:21;15.50;;;8.27;;
12888;SDS011;56848;49.896;11.424;2022-12-07T16:17:49;18.83;;;9.38;;
12888;SDS011;56848;49.896;11.424;2022-12-07T16:20:15;22.87;;;10.57;;
12888;SDS011;56848;49.896;11.424;2022-12-07T16:22:40;20.70;;;9.77;;
12888;SDS011;56848;49.896;11.424;2022-12-07T16:25:06;19.70;;;9.10;;
12888;SDS011;56848;49.896;11.424;2022-12-07T16:27:32;22.87;;;10.00;;
12888;SDS011;56848;49.896;11.424;2022-12-07T16:29:58;38.27;;;11.30;;
12888;SDS011;56848;49.896;11.424;2022-12-07T16:32:23;50.97;;;18.77;;
12888;SDS011;56848;49.896;11.424;2022-12-07T16:34:49;27.43;;;11.57;;
12888;SDS011;56848;49.896;11.424;2022-12-07T16:37:15;33.77;;;9.63;;
12888;SDS011;56848;49.896;11.424;2022-12-07T16:39:40;27.07;;;10.10;;
12888;SDS011;56848;49.896;11.424;2022-12-07T16:42:06;25.03;;;11.70;;
12888;SDS011;56848;49.896;11.424;2022-12-07T16:44:31;20.17;;;10.30;;
12888;SDS011;56848;49.896;11.424;2022-12-07T16:46:57;21.17;;;10.37;;
12888;SDS011;56848;49.896;11.424;2022-12-07T16:49:22;30.57;;;12.23;;
12888;SDS011;56848;49.896;11.424;2022-12-07T16:51:49;26.55;;;13.15;;
12888;SDS011;56848;49.896;11.424;2022-12-07T16:54:15;17.20;;;9.15;;
12888;SDS011;56848;49.896;11.424;2022-12-07T16:56:41;28.83;;;12.23;;
12888;SDS011;56848;49.896;11.424;2022-12-07T16:59:07;26.27;;;11.67;;
12888;SDS011;56848;49.896;11.424;2022-12-07T17:01:33;20.23;;;11.15;;
12888;SDS011;56848;49.896;11.424;2022-12-07T17:03:59;28.02;;;11.40;;
12888;SDS011;56848;49.896;11.424;2022-12-07T17:06:26;26.63;;;11.70;;
12888;SDS011;56848;49.896;11.424;2022-12-07T17:08:53;22.40;;;11.23;;
12888;SDS011;56848;49.896;11.424;2022-12-07T17:11:22;24.52;;;12.00;;
12888;SDS011;56848;49.896;11.424;2022-12-07T17:13:49;30.77;;;11.10;;
12888;SDS011;56848;49.896;11.424;2022-12-07T17:16:34;26.67;;;12.27;;
12888;SDS011;56848;49.896;11.424;2022-12-07T17:19:00;32.47;;;12.40;;
12888;SDS011;56848;49.896;11.424;2022-12-07T17:21:32;21.20;;;10.68;;
12888;SDS011;56848;49.896;11.424;2022-12-07T17:23:59;23.47;;;12.73;;
12888;SDS011;56848;49.896;11.424;2022-12-07T17:26:25;23.20;;;11.27;;
12888;SDS011;56848;49.896;11.424;2022-12-07T17:28:52;22.17;;;11.07;;
12888;SDS011;56848;49.896;11.424;2022-12-07T17:31:19;23.87;;;11.63;;
12888;SDS011;56848;49.896;11.424;2022-12-07T17:33:45;21.63;;;11.85;;
12888;SDS011;56848;49.896;11.424;2022-12-07T17:36:19;25.23;;;12.03;;
12888;SDS011;56848;49.896;11.424;2022-12-07T17:38:49;24.77;;;11.07;;
12888;SDS011;56848;49.896;11.424;2022-12-07T17:41:25;18.10;;;10.20;;
12888;SDS011;56848;49.896;11.424;2022-12-07T17:44:15;23.48;;;11.60;;
12888;SDS011;56848;49.896;11.424;2022-12-07T17:46:42;21.23;;;11.82;;
12888;SDS011;56848;49.896;11.424;2022-12-07T17:49:09;19.23;;;10.48;;
12888;SDS011;56848;49.896;11.424;2022-12-07T17:51:35;17.47;;;9.20;;
12888;SDS011;56848;49.896;11.424;2022-12-07T17:54:20;30.27;;;10.80;;
12888;SDS011;56848;49.896;11.424;2022-12-07T17:56:45;20.17;;;11.60;;
12888;SDS011;56848;49.896;11.424;2022-12-07T17:59:12;22.40;;;9.52;;
12888;SDS011;56848;49.896;11.424;2022-12-07T18:01:38;21.63;;;11.67;;
12888;SDS011;56848;49.896;11.424;2022-12-07T18:04:04;28.15;;;13.70;;
12888;SDS011;56848;49.896;11.424;2022-12-07T18:06:30;24.88;;;12.50;;
12888;SDS011;56848;49.896;11.424;2022-12-07T18:08:56;23.42;;;11.50;;
12888;SDS011;56848;49.896;11.424;2022-12-07T18:11:22;23.77;;;11.88;;
12888;SDS011;56848;49.896;11.424;2022-12-07T18:13:48;30.20;;;10.73;;
12888;SDS011;56848;49.896;11.424;2022-12-07T18:16:15;19.10;;;10.80;;
12888;SDS011;56848;49.896;11.424;2022-12-07T18:18:43;17.00;;;10.07;;
12888;SDS011;56848;49.896;11.424;2022-12-07T18:21:31;16.65;;;9.95;;
12888;SDS011;56848;49.896;11.424;2022-12-07T18:23:57;25.83;;;9.25;;
12888;SDS011;56848;49.896;11.424;2022-12-07T18:26:26;25.00;;;10.98;;
12888;SDS011;56848;49.896;11.424;2022-12-07T18:28:54;17.80;;;10.52;;
12888;SDS011;56848;49.896;11.424;2022-12-07T18:31:19;22.33;;;12.23;;
12888;SDS011;56848;49.896;11.424;2022-12-07T18:33:45;24.40;;;11.90;;
12888;SDS011;56848;49.896;11.424;2022-12-07T18:36:12;20.73;;;11.05;;
12888;SDS011;56848;49.896;11.424;2022-12-07T18:38:38;16.45;;;8.80;;
12888;SDS011;56848;49.896;11.424;2022-12-07T18:41:08;22.27;;;9.37;;
12888;SDS011;56848;49.896;11.424;2022-12-07T18:43:36;36.22;;;13.18;;
12888;SDS011;56848;49.896;11.424;2022-12-07T18:46:08;17.20;;;10.50;;
12888;SDS011;56848;49.896;11.424;2022-12-07T18:48:39;26.63;;;11.73;;
12888;SDS011;56848;49.896;11.424;2022-12-07T18:51:06;19.87;;;10.53;;
12888;SDS011;56848;49.896;11.424;2022-12-07T18:53:33;24.65;;;12.10;;
12888;SDS011;56848;49.896;11.424;2022-12-07T18:56:00;22.75;;;11.13;;
12888;SDS011;56848;49.896;11.424;2022-12-07T18:58:30;24.98;;;11.77;;
12888;SDS011;56848;49.896;11.424;2022-12-07T19:00:56;25.00;;;11.70;;
12888;SDS011;56848;49.896;11.424;2022-12-07T19:03:22;24.83;;;11.63;;
12888;SDS011;56848;49.896;11.424;2022-12-07T19:05:48;21.73;;;11.93;;
12888;SDS011;56848;49.896;11.424;2022-12-07T19:08:13;21.13;;;9.43;;
12888;SDS011;56848;49.896;11.424;2022-12-07T19:10:39;19.80;;;11.63;;
12888;SDS011;56848;49.896;11.424;2022-12-07T19:13:04;11.10;;;5.80;;
12888;SDS011;56848;49.896;11.424;2022-12-07T19:15:30;17.27;;;10.33;;
12888;SDS011;56848;49.896;11.424;2022-12-07T19:17:56;20.57;;;11.07;;
12888;SDS011;56848;49.896;11.424;2022-12-07T19:20:21;19.47;;;9.80;;
12888;SDS011;56848;49.896;11.424;2022-12-07T19:22:47;19.53;;;11.17;;
12888;SDS011;56848;49.896;11.424;2022-12-07T19:25:13;29.80;;;13.83;;
12888;SDS011;56848;49.896;11.424;2022-12-07T19:27:38;19.73;;;11.00;;
12888;SDS011;56848;49.896;11.424;2022-12-07T19:30:04;22.97;;;11.13;;
12888;SDS011;56848;49.896;11.424;2022-12-07T19:32:31;19.38;;;10.70;;
12888;SDS011;56848;49.896;11.424;2022-12-07T19:34:57;20.30;;;11.10;;
12888;SDS011;56848;49.896;11.424;2022-12-07T19:37:22;19.00;;;9.87;;
12888;SDS011;56848;49.896;11.424;2022-12-07T19:39:48;15.70;;;9.20;;
12888;SDS011;56848;49.896;11.424;2022-12-07T19:42:15;18.25;;;9.65;;
12888;SDS011;56848;49.896;11.424;2022-12-07T19:44:42;16.80;;;10.10;;
12888;SDS011;56848;49.896;11.424;2022-12-07T19:47:08;21.53;;;12.03;;
12888;SDS011;56848;49.896;11.424;2022-12-07T19:49:34;16.80;;;10.63;;
12888;SDS011;56848;49.896;11.424;2022-12-07T19:52:01;15.10;;;9.15;;
12888;SDS011;56848;49.896;11.424;2022-12-07T19:54:29;20.70;;;9.77;;
12888;SDS011;56848;49.896;11.424;2022-12-07T19:56:55;18.42;;;10.35;;
12888;SDS011;56848;49.896;11.424;2022-12-07T19:59:23;17.40;;;8.90;;
12888;SDS011;56848;49.896;11.424;2022-12-07T20:01:52;17.23;;;9.23;;
12888;SDS011;56848;49.896;11.424;2022-12-07T20:04:19;18.17;;;9.23;;
12888;SDS011;56848;49.896;11.424;2022-12-07T20:06:48;19.13;;;10.48;;
12888;SDS011;56848;49.896;11.424;2022-12-07T20:09:16;20.23;;;9.25;;
12888;SDS011;56848;49.896;11.424;2022-12-07T20:11:42;18.25;;;9.27;;
12888;SDS011;56848;49.896;11.424;2022-12-07T20:14:26;19.15;;;10.25;;
12888;SDS011;56848;49.896;11.424;2022-12-07T20:16:53;18.50;;;11.00;;
12888;SDS011;56848;49.896;11.424;2022-12-07T20:19:19;20.90;;;11.00;;
12888;SDS011;56848;49.896;11.424;2022-12-07T20:21:45;23.90;;;10.70;;
12888;SDS011;56848;49.896;11.424;2022-12-07T20:24:12;23.45;;;11.18;;
12888;SDS011;56848;49.896;11.424;2022-12-07T20:26:41;17.48;;;9.85;;
12888;SDS011;56848;49.896;11.424;2022-12-07T20:29:07;18.40;;;10.57;;
12888;SDS011;56848;49.896;11.424;2022-12-07T20:31:35;24.15;;;11.35;;
12888;SDS011;56848;49.896;11.424;2022-12-07T20:34:01;21.60;;;11.73;;
12888;SDS011;56848;49.896;11.424;2022-12-07T20:36:27;20.13;;;11.43;;
12888;SDS011;56848;49.896;11.424;2022-12-07T20:38:53;19.10;;;11.80;;
12888;SDS011;56848;49.896;11.424;2022-12-07T20:41:19;32.83;;;12.90;;
12888;SDS011;56848;49.896;11.424;2022-12-07T20:44:03;19.20;;;10.35;;
12888;SDS011;56848;49.896;11.424;2022-12-07T20:46:29;21.50;;;11.60;;
12888;SDS011;56848;49.896;11.424;2022-12-07T20:48:57;23.17;;;11.37;;
12888;SDS011;56848;49.896;11.424;2022-12-07T20:51:24;20.95;;;10.70;;
12888;SDS011;56848;49.896;11.424;2022-12-07T20:53:54;15.50;;;8.13;;
12888;SDS011;56848;49.896;11.424;2022-12-07T20:56:21;20.52;;;12.27;;
12888;SDS011;56848;49.896;11.424;2022-12-07T20:58:52;23.88;;;12.75;;
12888;SDS011;56848;49.896;11.424;2022-12-07T21:01:18;20.58;;;10.07;;
12888;SDS011;56848;49.896;11.424;2022-12-07T21:03:44;33.50;;;12.53;;
12888;SDS011;56848;49.896;11.424;2022-12-07T21:06:13;19.77;;;11.57;;
12888;SDS011;56848;49.896;11.424;2022-12-07T21:08:44;25.30;;;11.93;;